Time;durP1;ratioP1;P1;durP2;ratioP2;P2;SDS_P1;SDS_P2;PMS_P1;PMS_P2;Temp;Humidity;BMP_temperature;BMP_pressure;BME280_temperature;BME280_humidity;BME280_pressure;Samples;Min_cycle;Max_cycle;Signal;HPM_P1;HPM_P2
2022/03/20 00:00:00;;;;;;;14.83;8.73;;;;;;;5.03;48.07;100344.59;5099314;28;42663;-76
2022/03/20 00:02:32;;;;;;;13.97;8.70;;;;;;;4.99;48.35;100337.66;5117601;28;43491;-76
2022/03/20 00:05:00;;;;;;;13.10;9.10;;;;;;;4.94;48.25;100347.38;5118002;28;40912;-76
2022/03/20 00:07:28;;;;;;;12.40;8.40;;;;;;;4.88;48.16;100356.19;5117042;28;41838;-76
2022/03/20 00:09:56;;;;;;;14.57;8.67;;;;;;;4.81;48.29;100345.84;5133881;27;43042;-75
2022/03/20 00:12:23;;;;;;;14.17;8.60;;;;;;;4.77;48.34;100341.50;5113708;28;43546;-76
2022/03/20 00:14:52;;;;;;;15.00;9.30;;;;;;;4.72;48.55;100345.94;5113495;28;39004;-76
2022/03/20 00:17:21;;;;;;;14.53;8.47;;;;;;;4.68;48.41;100340.78;5115758;28;20210;-76
2022/03/20 00:19:49;;;;;;;14.60;9.33;;;;;;;4.66;48.67;100334.66;5113069;28;41716;-76
2022/03/20 00:22:17;;;;;;;15.33;8.83;;;;;;;4.22;48.87;100258.34;5112154;28;43323;-76
2022/03/20 00:24:47;;;;;;;15.00;9.30;;;;;;;4.60;48.78;100331.25;5130155;27;41940;-76
2022/03/20 00:27:16;;;;;;;14.23;8.20;;;;;;;4.59;49.29;100322.50;5095163;28;40839;-75
2022/03/20 00:29:44;;;;;;;14.87;8.40;;;;;;;4.49;49.24;100304.31;5112702;28;44428;-76
2022/03/20 00:32:14;;;;;;;13.97;9.50;;;;;;;4.54;49.20;100324.34;5113251;28;42292;-76
2022/03/20 00:34:42;;;;;;;13.80;8.97;;;;;;;4.52;48.88;100318.25;5112627;28;39838;-75
2022/03/20 00:37:10;;;;;;;12.47;8.47;;;;;;;4.54;49.05;100323.47;5113063;28;41739;-76
2022/03/20 00:39:37;;;;;;;14.63;9.70;;;;;;;4.60;48.95;100319.00;5112745;28;42723;-76
2022/03/20 00:42:06;;;;;;;13.73;8.33;;;;;;;4.62;48.80;100322.47;5130160;27;42412;-76
2022/03/20 00:44:34;;;;;;;15.40;9.47;;;;;;;4.69;48.86;100321.50;5113977;28;42047;-75
2022/03/20 00:47:01;;;;;;;16.60;9.60;;;;;;;4.76;48.55;100329.28;5112824;28;41976;-76
2022/03/20 00:49:30;;;;;;;19.33;10.07;;;;;;;4.69;48.54;100300.53;5095237;28;42776;-75
2022/03/20 00:51:58;;;;;;;14.97;8.80;;;;;;;4.72;49.00;100309.22;5111313;28;43058;-77
2022/03/20 00:54:26;;;;;;;15.63;8.93;;;;;;;4.82;48.55;100316.06;5112783;28;40166;-76
2022/03/20 00:56:53;;;;;;;15.67;8.77;;;;;;;4.83;48.59;100323.03;5112759;28;40843;-76
2022/03/20 00:59:21;;;;;;;14.77;9.40;;;;;;;4.79;49.05;100308.25;5112299;28;41721;-76
2022/03/20 01:01:49;;;;;;;17.50;10.37;;;;;;;4.82;49.11;100309.03;5112960;28;42655;-76
2022/03/20 01:04:16;;;;;;;16.67;8.93;;;;;;;4.68;48.79;100288.28;5095077;28;41716;-76
2022/03/20 01:06:46;;;;;;;15.50;9.23;;;;;;;4.86;48.75;100309.84;5111817;28;42344;-76
2022/03/20 01:09:13;;;;;;;16.10;9.73;;;;;;;4.80;48.91;100294.22;5128786;27;42957;-76
2022/03/20 01:11:41;;;;;;;13.83;9.50;;;;;;;4.84;48.91;100301.13;5113535;28;42366;-76
2022/03/20 01:14:08;;;;;;;17.23;10.10;;;;;;;4.93;48.91;100301.00;5112065;28;40206;-76
2022/03/20 01:16:35;;;;;;;16.03;10.60;;;;;;;4.96;49.10;100301.81;5095591;28;40561;-76
2022/03/20 01:19:03;;;;;;;15.33;9.40;;;;;;;4.90;48.88;100282.69;5112018;28;43727;-76
2022/03/20 01:21:31;;;;;;;18.13;10.00;;;;;;;5.06;49.04;100302.53;5095055;28;42145;-76
2022/03/20 01:24:00;;;;;;;15.93;9.43;;;;;;;5.09;48.73;100302.47;5129186;27;41061;-76
2022/03/20 01:26:29;;;;;;;15.20;10.17;;;;;;;5.12;49.00;100301.56;5129533;27;41813;-76
2022/03/20 01:28:56;;;;;;;16.27;10.50;;;;;;;5.12;49.09;100291.03;5113065;28;43039;-76
2022/03/20 01:31:24;;;;;;;16.60;9.70;;;;;;;5.15;48.82;100286.63;5095304;28;42093;-76
2022/03/20 01:33:52;;;;;;;14.97;10.90;;;;;;;5.12;49.10;100281.41;5094807;28;40409;-76
2022/03/20 01:36:20;;;;;;;19.07;11.37;;;;;;;5.17;49.69;100284.84;5113429;28;41618;-76
2022/03/20 01:38:48;;;;;;;17.03;10.67;;;;;;;5.07;49.10;100263.09;5111778;27;43504;-76
2022/03/20 01:41:18;;;;;;;14.17;9.87;;;;;;;5.18;49.09;100281.31;5111790;28;43352;-76
2022/03/20 01:43:50;;;;;;;14.33;9.03;;;;;;;5.19;49.52;100271.69;5094340;28;41598;-76
2022/03/20 01:46:18;;;;;;;16.50;9.80;;;;;;;5.15;49.31;100265.59;5110107;28;41730;-76
2022/03/20 01:48:45;;;;;;;15.17;9.97;;;;;;;5.16;49.38;100266.47;5094242;28;43279;-76
2022/03/20 01:51:15;;;;;;;15.20;10.13;;;;;;;5.11;49.84;100248.16;5112326;28;42369;-76
2022/03/20 01:53:44;;;;;;;18.13;11.43;;;;;;;5.30;49.77;100269.72;5111363;28;40010;-76
2022/03/20 01:56:12;;;;;;;19.57;11.17;;;;;;;5.27;50.14;100254.00;5111725;28;41857;-76
2022/03/20 01:58:41;;;;;;;15.77;10.93;;;;;;;5.41;49.83;100263.38;5111573;28;42880;-76
2022/03/20 02:01:08;;;;;;;17.83;10.80;;;;;;;5.48;49.61;100263.22;5112944;28;43159;-77
2022/03/20 02:03:36;;;;;;;16.97;10.90;;;;;;;5.54;49.67;100252.63;5094305;28;39653;-76
2022/03/20 02:06:05;;;;;;;21.10;12.03;;;;;;;5.58;49.95;100246.38;5112840;28;41855;-76
2022/03/20 02:08:36;;;;;;;19.47;11.20;;;;;;;5.60;50.11;100241.97;5111440;28;42708;-76
2022/03/20 02:11:03;;;;;;;18.67;11.93;;;;;;;5.68;49.95;100245.34;5109738;28;42848;-76
2022/03/20 02:13:31;;;;;;;20.47;12.50;;;;;;;5.61;50.18;100227.94;5110996;28;40979;-76
2022/03/20 02:16:00;;;;;;;19.80;12.13;;;;;;;5.76;49.99;100248.66;5110727;28;41520;-76
2022/03/20 02:18:28;;;;;;;22.30;12.57;;;;;;;5.76;49.70;100248.66;5111009;28;43603;-76
2022/03/20 02:20:57;;;;;;;24.47;12.13;;;;;;;5.76;49.75;100244.25;5112310;28;42386;-76
2022/03/20 02:23:26;;;;;;;18.90;11.87;;;;;;;5.77;50.00;100239.88;5110615;28;41034;-76
2022/03/20 02:25:54;;;;;;;22.27;12.23;;;;;;;5.79;50.13;100248.59;5094330;28;41449;-76
2022/03/20 02:28:21;;;;;;;23.93;13.73;;;;;;;5.84;50.15;100240.59;5111238;28;43821;-76
2022/03/20 02:30:49;;;;;;;24.77;14.27;;;;;;;5.85;50.49;100243.19;5094081;28;43131;-76
2022/03/20 02:33:17;;;;;;;22.53;12.97;;;;;;;5.84;50.42;100230.94;5111049;28;41190;-76
2022/03/20 02:35:45;;;;;;;21.73;13.47;;;;;;;5.90;50.36;100238.75;5093907;28;40785;-75
2022/03/20 02:38:13;;;;;;;25.37;13.70;;;;;;;5.88;50.62;100226.50;5110813;28;42710;-77
2022/03/20 02:40:42;;;;;;;26.53;14.20;;;;;;;5.91;50.57;100235.22;5111126;28;42554;-76
2022/03/20 02:43:10;;;;;;;22.53;13.83;;;;;;;5.93;50.48;100232.56;5110998;28;41968;-76
2022/03/20 02:45:38;;;;;;;20.60;13.37;;;;;;;5.95;50.57;100222.84;5112348;28;41724;-76
2022/03/20 02:48:06;;;;;;;20.60;13.07;;;;;;;5.85;50.31;100201.13;5112171;28;42670;-76
2022/03/20 02:50:37;;;;;;;22.63;13.40;;;;;;;5.99;50.58;100225.41;5110389;28;42371;-76
2022/03/20 02:53:11;;;;;;;21.57;13.20;;;;;;;6.00;50.56;100227.13;5110300;28;41079;-76
2022/03/20 02:55:40;;;;;;;23.87;13.73;;;;;;;6.04;50.53;100228.81;5110838;28;40786;-76
2022/03/20 02:58:11;;;;;;;22.37;13.87;;;;;;;6.07;51.00;100228.72;5109827;28;42838;-76
2022/03/20 03:00:41;;;;;;;24.43;14.53;;;;;;;6.11;50.92;100222.50;5110890;28;41551;-76
2022/03/20 03:03:11;;;;;;;25.93;14.30;;;;;;;6.13;50.87;100222.47;5110135;28;41643;-76
2022/03/20 03:05:40;;;;;;;20.93;13.77;;;;;;;6.19;50.60;100224.06;5093878;28;42508;-76
2022/03/20 03:10:59;;;;;;;25.57;14.33;;;;;;;6.26;50.68;100230.94;5110905;28;42883;-76
2022/03/20 03:13:31;;;;;;;23.40;14.30;;;;;;;6.27;50.79;100216.88;5109380;28;41811;-76
2022/03/20 03:16:03;;;;;;;23.87;14.33;;;;;;;6.27;50.75;100224.78;5108233;28;42681;-77
2022/03/20 03:18:30;;;;;;;23.00;13.63;;;;;;;6.18;50.61;100203.97;5109556;28;42817;-76
2022/03/20 03:20:59;;;;;;;21.33;13.93;;;;;;;6.33;50.35;100229.88;5126932;27;42292;-76
2022/03/20 03:23:27;;;;;;;21.80;13.10;;;;;;;6.36;50.81;100224.56;5109785;28;41938;-76
2022/03/20 03:25:56;;;;;;;24.03;14.30;;;;;;;6.37;50.62;100229.78;5110489;28;40856;-76
2022/03/20 03:28:32;;;;;;;27.07;14.33;;;;;;;6.33;50.35;100230.75;5109934;28;42037;-76
2022/03/20 03:31:02;;;;;;;25.53;14.53;;;;;;;6.37;50.16;100235.06;5108604;28;42386;-76
2022/03/20 03:33:31;;;;;;;20.47;13.60;;;;;;;6.39;50.05;100229.75;5110165;28;40996;-76
2022/03/20 03:35:57;;;;;;;25.43;14.27;;;;;;;6.40;50.38;100231.50;5111551;28;41604;-76
2022/03/20 03:38:27;;;;;;;21.80;13.50;;;;;;;6.41;50.24;100233.22;5092955;28;42035;-76
2022/03/20 03:40:56;;;;;;;22.80;14.67;;;;;;;6.39;49.94;100235.88;5110324;28;42573;-77
2022/03/20 03:43:24;;;;;;;24.63;14.63;;;;;;;6.39;50.21;100232.38;5109885;28;40209;-76
2022/03/20 03:45:53;;;;;;;22.73;13.73;;;;;;;6.33;50.15;100225.50;5093273;28;42121;-76
2022/03/20 03:48:23;;;;;;;25.10;14.60;;;;;;;6.37;50.15;100240.31;5111243;28;43005;-76
2022/03/20 03:50:53;;;;;;;26.27;14.83;;;;;;;6.34;50.45;100236.88;5109954;28;42369;-76
2022/03/20 03:53:21;;;;;;;24.80;14.23;;;;;;;6.30;50.39;100235.25;5109697;28;41006;-76
2022/03/20 03:55:48;;;;;;;23.63;14.73;;;;;;;6.24;50.63;100240.63;5092902;28;40340;-76
2022/03/20 03:58:16;;;;;;;23.23;13.43;;;;;;;6.22;50.44;100250.31;5109748;28;44159;-76
2022/03/20 04:00:46;;;;;;;22.93;13.93;;;;;;;6.22;50.53;100247.69;5109979;27;42040;-76
2022/03/20 04:03:14;;;;;;;23.57;12.90;;;;;;;6.24;50.20;100244.13;5113413;28;40705;-76
2022/03/20 04:05:43;;;;;;;22.20;12.40;;;;;;;6.24;50.37;100245.88;5113653;28;41725;-77
2022/03/20 04:08:15;;;;;;;24.50;14.00;;;;;;;6.20;50.52;100245.09;5096118;28;42686;-76
2022/03/20 04:10:42;;;;;;;21.53;13.43;;;;;;;6.12;50.53;100242.63;5096988;28;41412;-76
2022/03/20 04:13:10;;;;;;;23.83;14.17;;;;;;;6.04;50.69;100239.31;5095977;28;41528;-76
2022/03/20 04:15:39;;;;;;;25.90;15.10;;;;;;;5.97;50.75;100237.72;5096294;28;40683;-76
2022/03/20 04:18:08;;;;;;;25.97;14.00;;;;;;;5.89;51.09;100234.38;5112870;28;43203;-76
2022/03/20 04:20:36;;;;;;;26.23;14.67;;;;;;;5.81;51.37;100238.88;5113117;28;43172;-76
2022/03/20 04:25:50;;;;;;;23.93;14.30;;;;;;;5.65;51.77;100224.34;5110329;28;41818;-76
2022/03/20 04:28:19;;;;;;;24.90;15.43;;;;;;;5.58;51.76;100217.47;5094806;28;43989;-76
2022/03/20 04:30:48;;;;;;;23.70;14.77;;;;;;;5.50;52.04;100224.66;5130357;27;43193;-76
2022/03/20 04:33:15;;;;;;;26.93;15.20;;;;;;;5.44;52.30;100214.28;5113688;28;41161;-76
2022/03/20 04:35:44;;;;;;;25.97;15.93;;;;;;;5.10;52.67;100166.78;5130284;27;41709;-76
2022/03/20 04:38:13;;;;;;;27.33;15.83;;;;;;;5.34;52.66;100218.84;5095534;28;41677;-76
2022/03/20 04:40:40;;;;;;;25.77;15.40;;;;;;;5.16;52.60;100204.31;5113243;28;43163;-76
2022/03/20 04:43:08;;;;;;;23.50;14.83;;;;;;;5.22;52.69;100225.19;5095705;28;40376;-76
2022/03/20 04:45:36;;;;;;;28.37;14.83;;;;;;;5.12;52.76;100215.75;5095746;28;40680;-76
2022/03/20 04:59:23;;;;;;;24.13;13.90;;;;;;;4.82;52.87;100224.22;5054122;28;43660;-76
2022/03/20 05:01:51;;;;;;;23.93;14.33;;;;;;;4.82;53.07;100243.41;5081219;28;41474;-76
2022/03/20 05:04:19;;;;;;;25.67;15.43;;;;;;;4.77;54.04;100233.91;5095173;28;41041;-76
2022/03/20 05:06:47;;;;;;;24.33;14.40;;;;;;;4.74;53.56;100241.81;5112527;28;41837;-76
2022/03/20 05:15:01;;;;;;;27.50;15.90;;;;;;;4.60;53.93;100245.53;5017102;28;40596;-76
2022/03/20 05:17:28;;;;;;;25.73;16.87;;;;;;;4.59;54.17;100249.03;5034136;28;42740;-76
2022/03/20 05:19:56;;;;;;;24.20;14.20;;;;;;;4.54;54.62;100240.41;5049474;28;43389;-76
2022/03/20 05:22:24;;;;;;;25.57;15.20;;;;;;;4.57;54.26;100255.25;5111988;28;43339;-76
2022/03/20 05:24:54;;;;;;;25.97;15.50;;;;;;;4.55;54.10;100250.00;5111587;28;39978;-76
2022/03/20 05:27:22;;;;;;;31.63;17.33;;;;;;;4.55;54.02;100246.50;5129245;27;43072;-75
2022/03/20 05:29:49;;;;;;;27.60;15.23;;;;;;;4.57;54.45;100250.84;5111800;28;42888;-76
2022/03/20 05:32:17;;;;;;;27.67;15.50;;;;;;;4.57;54.52;100250.84;5112042;28;41229;-76
2022/03/20 05:34:45;;;;;;;26.77;15.37;;;;;;;4.53;54.47;100237.81;5128479;27;40636;-76
2022/03/20 05:37:13;;;;;;;27.27;14.93;;;;;;;4.64;54.69;100249.84;5112046;28;42552;-76
2022/03/20 05:39:40;;;;;;;30.60;15.93;;;;;;;4.70;54.54;100252.34;5113322;28;43485;-76
2022/03/20 05:42:09;;;;;;;27.87;16.57;;;;;;;4.75;54.57;100252.28;5111911;28;42439;-76
2022/03/20 05:44:37;;;;;;;26.23;16.03;;;;;;;4.80;54.28;100250.47;5111840;28;41733;-76
2022/03/20 05:47:05;;;;;;;28.23;15.57;;;;;;;4.84;54.11;100249.50;5111678;28;40692;-76
2022/03/20 05:49:35;;;;;;;21.83;14.53;;;;;;;4.85;53.93;100255.63;5111515;28;41746;-76
2022/03/20 05:52:03;;;;;;;25.33;16.13;;;;;;;4.85;54.42;100255.63;5111309;28;42372;-76
2022/03/20 05:54:31;;;;;;;26.97;15.70;;;;;;;4.91;54.29;100263.41;5111840;28;41033;-76
2022/03/20 05:59:45;;;;;;;27.20;15.60;;;;;;;5.03;54.12;100255.31;5112375;28;42793;-76
2022/03/20 06:02:13;;;;;;;23.93;14.67;;;;;;;5.07;54.14;100254.34;5113068;28;42290;-76
2022/03/20 06:04:41;;;;;;;23.53;15.20;;;;;;;4.96;53.92;100233.53;5111540;28;41267;-76
2022/03/20 06:07:09;;;;;;;25.30;15.37;;;;;;;5.10;53.97;100262.19;5111474;28;42586;-76
2022/03/20 06:09:37;;;;;;;30.43;15.83;;;;;;;5.12;54.08;100260.41;5094144;28;43006;-76
2022/03/20 06:12:06;;;;;;;25.83;15.80;;;;;;;5.10;54.10;100254.31;5112847;28;43161;-76
2022/03/20 06:14:35;;;;;;;24.50;14.63;;;;;;;5.17;54.31;100263.81;5111224;28;41927;-76
2022/03/20 06:17:08;;;;;;;28.70;16.03;;;;;;;5.24;53.83;100270.69;5094203;28;40641;-76
2022/03/20 06:19:36;;;;;;;26.97;15.53;;;;;;;5.23;53.85;100263.69;5093604;28;44443;-76
2022/03/20 06:22:05;;;;;;;28.33;15.90;;;;;;;5.36;53.62;100266.97;5110075;28;42521;-76
2022/03/20 06:24:33;;;;;;;25.50;15.00;;;;;;;5.51;53.72;100273.69;5110281;28;40202;-76
2022/03/20 06:27:02;;;;;;;27.70;15.90;;;;;;;5.58;53.19;100264.78;5094206;28;41676;-76
2022/03/20 06:29:31;;;;;;;25.43;14.60;;;;;;;5.64;53.09;100267.31;5111001;28;42778;-76
2022/03/20 06:31:58;;;;;;;27.80;16.73;;;;;;;5.79;52.97;100274.88;5112571;28;42360;-76
2022/03/20 06:34:27;;;;;;;27.17;15.03;;;;;;;5.74;52.77;100239.94;5111068;28;40826;-76
2022/03/20 06:37:00;;;;;;;24.43;14.67;;;;;;;6.00;52.24;100263.94;5094278;28;41031;-75
2022/03/20 06:39:28;;;;;;;27.33;15.13;;;;;;;6.23;52.06;100291.50;5110762;28;42896;-76
2022/03/20 06:41:55;;;;;;;25.00;15.90;;;;;;;6.36;51.86;100292.97;5110739;28;43368;-76
2022/03/20 06:44:24;;;;;;;23.33;14.03;;;;;;;6.46;51.37;100291.84;5093513;28;41078;-76
2022/03/20 06:46:51;;;;;;;22.50;14.33;;;;;;;6.46;50.50;100279.56;5111117;28;41584;-76
2022/03/20 06:49:19;;;;;;;25.83;15.20;;;;;;;6.72;50.28;100297.38;5110148;28;42806;-76
2022/03/20 06:51:47;;;;;;;23.70;14.53;;;;;;;6.70;50.19;100308.84;5110518;28;42108;-76
2022/03/20 06:54:15;;;;;;;25.20;15.93;;;;;;;6.77;49.76;100294.66;5110395;28;39895;-77
2022/03/20 06:56:43;;;;;;;25.97;14.70;;;;;;;6.96;49.64;100310.84;5111090;28;41996;-76
2022/03/20 06:59:14;;;;;;;23.50;14.77;;;;;;;6.98;49.55;100316.94;5109926;28;42843;-76
2022/03/20 07:01:41;;;;;;;27.13;15.57;;;;;;;7.03;49.45;100320.34;5093941;28;41456;-76
2022/03/20 07:04:10;;;;;;;22.17;14.47;;;;;;;7.20;49.11;100302.34;5092121;28;40288;-76
2022/03/20 07:06:38;;;;;;;24.07;14.27;;;;;;;7.53;48.42;100327.84;5092968;28;42388;-76
2022/03/20 07:09:07;;;;;;;24.57;15.30;;;;;;;7.71;47.57;100312.41;5109587;28;41682;-76
2022/03/20 07:11:35;;;;;;;23.73;14.30;;;;;;;8.25;47.10;100334.59;5093155;28;41245;-75
2022/03/20 07:14:03;;;;;;;18.93;13.00;;;;;;;8.83;45.78;100351.31;5109217;28;41017;-75
2022/03/20 07:16:33;;;;;;;21.77;14.13;;;;;;;9.43;44.90;100363.44;5109480;28;43229;-75
2022/03/20 07:19:04;;;;;;;23.77;13.47;;;;;;;9.77;43.34;100364.94;5107592;28;43260;-75
2022/03/20 07:21:33;;;;;;;21.33;14.87;;;;;;;9.96;42.96;100373.94;5109284;28;43521;-77
2022/03/20 07:24:03;;;;;;;19.67;13.07;;;;;;;10.02;42.86;100373.72;5109271;28;39913;-75
2022/03/20 07:29:31;;;;;;;21.43;14.00;;;;;;;10.21;42.66;100385.41;5087876;28;43818;-76
2022/03/20 07:32:01;;;;;;;20.53;13.73;;;;;;;10.46;42.48;100384.50;5098051;28;42548;-76
2022/03/20 07:34:31;;;;;;;21.20;15.07;;;;;;;12.12;40.61;100384.69;5109530;28;41551;-76
2022/03/20 07:37:00;;;;;;;22.73;15.57;;;;;;;13.73;36.56;100394.75;5114437;28;41992;-77
2022/03/20 07:39:29;;;;;;;22.10;15.47;;;;;;;15.04;34.62;100425.06;5096010;28;41932;-76
2022/03/20 07:42:00;;;;;;;21.93;15.67;;;;;;;16.41;32.01;100428.56;5111020;28;43125;-77
2022/03/20 07:44:31;;;;;;;21.27;16.33;;;;;;;17.09;30.69;100409.13;5114210;28;43174;-77
2022/03/20 07:46:59;;;;;;;22.63;16.10;;;;;;;17.98;30.04;100463.94;5118325;28;41902;-78
2022/03/20 07:49:27;;;;;;;21.37;16.60;;;;;;;18.84;28.36;100469.63;5122003;28;41969;-77
2022/03/20 07:51:57;;;;;;;20.50;16.40;;;;;;;19.90;27.12;100469.00;5104913;28;41045;-77
2022/03/20 07:54:25;;;;;;;22.43;17.53;;;;;;;19.31;27.02;100464.38;5122771;28;41290;-76
2022/03/20 07:56:53;;;;;;;24.33;17.27;;;;;;;19.46;26.25;100464.22;5125664;28;42571;-77
2022/03/20 07:59:22;;;;;;;20.27;15.83;;;;;;;19.19;26.83;100464.41;5118276;28;43957;-78
2022/03/20 08:01:50;;;;;;;22.83;16.73;;;;;;;19.27;26.37;100459.34;5112682;28;43673;-78
2022/03/20 08:04:19;;;;;;;23.57;18.23;;;;;;;18.10;27.19;100443.47;5095678;28;41616;-76
2022/03/20 08:06:50;;;;;;;22.30;17.10;;;;;;;17.18;28.31;100459.41;5111206;28;41453;-78
2022/03/20 08:09:18;;;;;;;22.17;17.40;;;;;;;16.21;29.43;100452.09;5114139;28;43682;-78
2022/03/20 08:11:45;;;;;;;22.40;16.10;;;;;;;15.20;30.97;100444.63;5113151;28;43218;-77
2022/03/20 08:14:13;;;;;;;23.20;15.10;;;;;;;14.88;32.46;100434.84;5112591;28;39949;-77
2022/03/20 08:16:42;;;;;;;22.37;16.23;;;;;;;14.69;32.58;100425.22;5113825;28;41865;-77
2022/03/20 08:19:11;;;;;;;22.23;15.93;;;;;;;14.89;32.16;100432.09;5112529;28;43106;-77
2022/03/20 08:21:39;;;;;;;21.53;15.80;;;;;;;16.00;31.13;100425.72;5111206;28;43107;-78
2022/03/20 08:24:12;;;;;;;24.37;16.77;;;;;;;17.04;29.60;100449.59;5112378;28;42060;-78
2022/03/20 08:26:40;;;;;;;22.97;16.33;;;;;;;17.92;28.89;100448.28;5111357;28;40744;-77
2022/03/20 08:29:10;;;;;;;24.27;16.57;;;;;;;18.94;27.11;100444.69;5111920;28;42651;-77
2022/03/20 08:31:47;;;;;;;20.27;15.97;;;;;;;20.44;25.93;100467.50;5095236;28;42405;-76
2022/03/20 08:34:15;;;;;;;19.73;15.83;;;;;;;21.23;25.18;100472.94;5112070;28;43043;-77
2022/03/20 08:36:45;;;;;;;19.13;16.13;;;;;;;21.01;25.32;100471.97;5111346;28;44252;-77
2022/03/20 08:39:13;;;;;;;22.53;17.60;;;;;;;21.46;23.88;100494.34;5096805;28;43442;-78
2022/03/20 08:41:43;;;;;;;19.57;15.77;;;;;;;22.29;22.90;100488.31;5112607;28;41367;-78
2022/03/20 08:44:10;;;;;;;20.13;16.57;;;;;;;23.05;22.40;100487.09;5112281;28;41858;-77
2022/03/20 08:46:38;;;;;;;19.57;16.80;;;;;;;24.56;20.92;100492.19;5111403;27;40634;-77
2022/03/20 08:49:09;;;;;;;18.10;16.07;;;;;;;25.85;19.76;100509.34;5111092;28;43702;-77
2022/03/20 08:51:38;;;;;;;17.70;15.67;;;;;;;26.78;18.78;100500.69;5111689;28;44934;-76
2022/03/20 08:54:05;;;;;;;18.30;16.40;;;;;;;27.73;18.42;100504.25;5089628;28;42789;-78
2022/03/20 08:56:33;;;;;;;16.23;14.53;;;;;;;27.81;16.93;100507.00;5105126;28;41803;-79
2022/03/20 08:59:01;;;;;;;18.90;16.57;;;;;;;27.82;16.93;100503.25;5094627;28;41720;-79
2022/03/20 09:01:29;;;;;;;15.83;14.13;;;;;;;27.57;17.42;100493.31;5106107;28;42363;-80
2022/03/20 09:04:00;;;;;;;16.90;15.10;;;;;;;27.08;17.78;100496.63;5104843;28;40935;-79
2022/03/20 09:06:29;;;;;;;15.73;14.13;;;;;;;26.68;18.21;100480.94;5094549;28;42009;-78
2022/03/20 09:08:57;;;;;;;16.63;14.93;;;;;;;25.69;19.00;100476.63;5110903;28;42809;-79
2022/03/20 09:11:25;;;;;;;16.87;14.73;;;;;;;25.77;19.18;100452.28;5112126;28;43019;-80
2022/03/20 09:13:52;;;;;;;17.10;15.30;;;;;;;26.69;17.73;100477.19;5094830;28;40756;-77
2022/03/20 09:19:07;;;;;;;16.33;14.63;;;;;;;28.55;16.42;100487.84;5110264;28;42898;-80
2022/03/20 09:21:41;;;;;;;15.97;14.20;;;;;;;28.94;15.80;100485.22;5094823;28;43471;-78
2022/03/20 09:24:09;;;;;;;15.53;13.97;;;;;;;27.99;16.54;100464.13;5093636;28;39763;-80
2022/03/20 09:26:36;;;;;;;14.97;12.97;;;;;;;27.31;17.07;100442.53;5112126;28;41297;-80
2022/03/20 09:29:04;;;;;;;16.70;14.87;;;;;;;27.16;17.21;100464.06;5112827;28;42987;-81
2022/03/20 09:31:34;;;;;;;17.27;14.13;;;;;;;26.50;17.90;100461.09;5113208;28;43314;-79
2022/03/20 09:34:02;;;;;;;16.60;14.80;;;;;;;25.63;18.15;100450.09;5111613;28;39721;-78
2022/03/20 09:36:30;;;;;;;16.27;13.30;;;;;;;25.31;19.57;100456.84;5094763;28;43144;-78
2022/03/20 09:39:00;;;;;;;17.17;15.37;;;;;;;24.93;19.41;100462.44;5094583;28;40964;-78
2022/03/20 09:41:31;;;;;;;16.33;14.47;;;;;;;25.02;19.16;100467.81;5111775;28;43046;-77
2022/03/20 09:43:59;;;;;;;17.17;14.33;;;;;;;24.78;19.12;100458.47;5094359;28;41081;-78
2022/03/20 09:46:27;;;;;;;15.67;13.87;;;;;;;24.33;20.24;100453.75;5111700;28;40826;-78
2022/03/20 09:48:56;;;;;;;17.77;14.50;;;;;;;24.43;19.96;100460.00;5111230;28;42936;-78
2022/03/20 09:51:24;;;;;;;18.03;14.33;;;;;;;24.48;19.63;100459.56;5110937;28;43286;-77
2022/03/20 09:53:51;;;;;;;16.80;13.47;;;;;;;24.76;19.76;100455.03;5110524;28;40996;-80
2022/03/20 09:56:21;;;;;;;17.97;14.90;;;;;;;25.03;19.54;100468.69;5111551;28;42060;-79
2022/03/20 09:58:48;;;;;;;18.93;14.90;;;;;;;24.64;19.19;100457.94;5110687;27;42418;-80
2022/03/20 10:01:17;;;;;;;19.77;14.00;;;;;;;24.30;19.91;100462.16;5111666;28;42619;-78
2022/03/20 10:03:46;;;;;;;17.33;13.87;;;;;;;24.07;20.04;100463.41;5111843;28;41662;-80
2022/03/20 10:06:17;;;;;;;18.87;14.63;;;;;;;23.31;20.96;100455.03;5128634;27;41845;-79
2022/03/20 10:09:06;;;;;;;16.73;13.73;;;;;;;23.40;20.64;100458.75;5110855;28;43174;-80
2022/03/20 10:11:39;;;;;;;16.70;13.33;;;;;;;23.94;20.69;100442.91;5097898;28;42500;-80
2022/03/20 10:14:15;;;;;;;15.60;13.00;;;;;;;24.58;19.80;100457.69;5109259;28;41720;-79
2022/03/20 10:16:48;;;;;;;15.50;12.93;;;;;;;24.72;20.01;100464.50;5125153;27;41476;-78
2022/03/20 10:19:32;;;;;;;16.00;13.63;;;;;;;24.30;20.02;100459.44;5110553;27;42745;-79
2022/03/20 10:22:02;;;;;;;17.27;14.47;;;;;;;24.34;19.76;100447.31;5110108;28;43781;-78
2022/03/20 10:24:32;;;;;;;16.00;13.67;;;;;;;25.54;19.21;100472.69;5108310;27;41042;-78
2022/03/20 10:27:23;;;;;;;16.00;14.33;;;;;;;26.88;18.18;100459.78;5117156;27;42476;-79
2022/03/20 10:29:53;;;;;;;14.80;12.60;;;;;;;27.68;16.92;100480.25;5131347;27;42752;-77
2022/03/20 10:32:22;;;;;;;14.93;12.57;;;;;;;28.44;16.76;100471.81;5117977;27;42446;-79
2022/03/20 10:34:55;;;;;;;15.50;12.83;;;;;;;29.33;16.21;100478.94;5110115;28;42514;-78
2022/03/20 10:37:43;;;;;;;14.40;12.90;;;;;;;28.87;15.90;100478.78;5107350;28;41803;-79
2022/03/20 10:40:14;;;;;;;13.63;12.23;;;;;;;28.38;16.43;100472.53;5111781;27;43069;-79
2022/03/20 10:42:45;;;;;;;12.83;11.53;;;;;;;28.81;16.33;100468.53;5080520;28;41167;-78
2022/03/20 10:45:13;;;;;;;13.70;12.30;;;;;;;29.58;15.74;100482.44;5077162;28;41030;-80
2022/03/20 10:47:40;;;;;;;13.70;12.17;;;;;;;30.09;15.18;100480.09;5110123;28;42158;-77
2022/03/20 10:50:14;;;;;;;13.83;12.43;;;;;;;31.07;15.25;100484.47;5110190;28;43836;-79
2022/03/20 10:53:06;;;;;;;13.87;12.50;;;;;;;32.09;14.21;100487.25;5108971;27;43935;-78
2022/03/20 10:55:41;;;;;;;13.50;12.20;;;;;;;33.01;13.68;100488.06;5093211;28;43039;-82
2022/03/20 10:58:20;;;;;;;13.15;11.85;;;;;;;33.56;13.12;100497.25;5111007;28;42020;-80
2022/03/20 11:00:47;;;;;;;13.73;12.35;;;;;;;33.88;12.78;100499.28;5115914;27;41588;-81
2022/03/20 11:03:19;;;;;;;13.73;12.32;;;;;;;34.12;12.90;100486.88;5130252;27;42898;-80
2022/03/20 11:05:47;;;;;;;12.40;11.25;;;;;;;34.40;12.70;100488.63;5114057;27;42749;-80
2022/03/20 11:08:15;;;;;;;12.98;11.70;;;;;;;34.95;12.08;100484.59;5099097;28;41105;-80
2022/03/20 11:10:44;;;;;;;12.35;11.23;;;;;;;35.29;12.31;100477.94;5109730;28;43663;-81
2022/03/20 11:13:15;;;;;;;13.32;12.07;;;;;;;35.52;11.62;100477.44;5109921;28;42271;-77
2022/03/20 11:15:46;;;;;;;13.27;11.98;;;;;;;36.10;11.42;100485.63;5093387;28;40380;-79
2022/03/20 11:18:15;;;;;;;13.15;12.00;;;;;;;36.21;11.65;100460.94;5107980;28;41837;-78
2022/03/20 11:20:47;;;;;;;13.52;12.32;;;;;;;35.90;11.80;100486.59;5110111;28;42616;-77
2022/03/20 11:23:17;;;;;;;13.38;12.07;;;;;;;35.90;11.47;100464.53;5110535;28;42254;-78
2022/03/20 11:25:46;;;;;;;13.50;12.18;;;;;;;36.26;11.51;100474.06;5110519;28;40991;-78
2022/03/20 11:28:14;;;;;;;11.38;10.25;;;;;;;37.11;11.13;100472.44;5090055;28;43338;-77
2022/03/20 11:30:45;;;;;;;11.45;10.35;;;;;;;37.48;10.67;100475.22;5108467;28;42355;-77
2022/03/20 11:33:21;;;;;;;13.15;11.85;;;;;;;37.98;10.48;100471.13;5105462;28;42975;-79
2022/03/20 11:35:48;;;;;;;12.40;11.30;;;;;;;38.18;10.66;100461.72;5105790;28;41348;-78
2022/03/20 11:38:19;;;;;;;12.38;11.25;;;;;;;38.53;10.69;100473.72;5107829;27;42215;-77
2022/03/20 11:41:11;;;;;;;12.35;11.25;;;;;;;39.16;10.42;100481.31;5108744;28;43464;-78
2022/03/20 11:43:40;;;;;;;12.52;11.30;;;;;;;38.41;10.51;100486.69;5086865;28;42940;-80
2022/03/20 11:46:27;;;;;;;12.18;11.07;;;;;;;36.51;11.53;100477.69;5109032;28;40108;-78
2022/03/20 11:49:26;;;;;;;13.40;12.00;;;;;;;35.18;12.21;100459.31;5106979;28;42733;-79
2022/03/20 11:51:56;;;;;;;12.73;11.35;;;;;;;34.79;12.45;100455.59;5090551;28;41583;-79
2022/03/20 11:54:33;;;;;;;14.57;13.10;;;;;;;35.45;12.05;100455.44;5108861;28;42506;-78